createdAt,value
2018-12-13T00:00:53.762Z,15.27
2018-12-13T00:03:27.891Z,13.63
2018-12-13T00:06:02.399Z,13.97
2018-12-13T00:08:36.606Z,15.07
2018-12-13T00:11:10.479Z,12.83
2018-12-13T00:13:45.167Z,13.13
2018-12-13T00:16:19.389Z,13.33
2018-12-13T00:18:53.588Z,13.83
2018-12-13T00:21:27.524Z,14.67
2018-12-13T00:24:01.882Z,12.97
2018-12-13T00:26:36.728Z,12.93
2018-12-13T00:29:15.122Z,13.40
2018-12-13T00:31:49.086Z,12.80
2018-12-13T00:34:22.924Z,12.63
2018-12-13T00:36:57.108Z,12.70
2018-12-13T00:39:35.353Z,12.97
2018-12-13T00:42:09.344Z,12.13
2018-12-13T00:44:43.534Z,12.87
2018-12-13T00:47:17.504Z,13.13
2018-12-13T00:49:51.674Z,12.57
2018-12-13T00:52:25.864Z,13.10
2018-12-13T00:57:33.005Z,13.77
2018-12-13T01:00:08.222Z,13.33
2018-12-13T01:02:44.284Z,12.87
2018-12-13T01:05:18.730Z,13.07
2018-12-13T01:07:52.726Z,14.70
2018-12-13T01:10:26.930Z,12.47
2018-12-13T01:13:00.912Z,13.33
2018-12-13T01:15:39.094Z,12.90
2018-12-13T01:18:13.105Z,13.60
2018-12-13T01:20:47.103Z,14.27
2018-12-13T01:23:21.089Z,14.00
2018-12-13T01:25:54.965Z,13.97
2018-12-13T01:28:28.873Z,13.47
2018-12-13T01:31:03.054Z,13.87
2018-12-13T01:33:37.388Z,13.83
2018-12-13T01:36:15.312Z,14.30
2018-12-13T01:38:53.754Z,12.90
2018-12-13T01:41:27.838Z,13.00
2018-12-13T01:44:05.971Z,12.70
2018-12-13T01:46:39.977Z,14.40
2018-12-13T01:49:14.031Z,13.37
2018-12-13T01:51:48.124Z,13.73
2018-12-13T01:54:22.169Z,13.20
2018-12-13T02:12:09.559Z,13.30
2018-12-13T02:14:43.565Z,13.93
2018-12-13T02:17:17.640Z,13.90
2018-12-13T02:19:51.836Z,14.00
2018-12-13T02:22:25.743Z,13.17
2018-12-13T02:24:59.622Z,14.73
2018-12-13T02:27:33.907Z,13.87
2018-12-13T02:30:08.909Z,14.27
2018-12-13T02:32:43.626Z,14.10
2018-12-13T02:35:18.045Z,13.77
2018-12-13T02:37:52.061Z,13.57
2018-12-13T02:40:26.067Z,13.03
2018-12-13T02:43:00.151Z,14.80
2018-12-13T02:45:34.369Z,14.47
2018-12-13T02:48:08.552Z,14.27
2018-12-13T02:50:42.535Z,14.83
2018-12-13T02:53:16.506Z,14.03
2018-12-13T02:55:50.544Z,14.60
2018-12-13T02:58:29.314Z,12.87
2018-12-13T03:01:03.694Z,13.87
2018-12-13T03:03:37.590Z,14.17
2018-12-13T03:06:11.740Z,14.47
2018-12-13T03:08:45.745Z,14.50
2018-12-13T03:11:20.039Z,14.80
2018-12-13T03:13:58.503Z,15.47
2018-12-13T03:16:33.126Z,14.57
2018-12-13T03:19:07.514Z,14.30
2018-12-13T03:21:41.547Z,16.23
2018-12-13T03:24:15.425Z,14.23
2018-12-13T03:26:49.595Z,15.03
2018-12-13T03:29:23.559Z,14.20
2018-12-13T03:31:57.516Z,15.13
2018-12-13T03:34:31.632Z,14.60
2018-12-13T03:37:05.436Z,15.47
2018-12-13T03:39:39.599Z,15.70
2018-12-13T03:42:14.344Z,14.70
2018-12-13T03:44:48.856Z,15.23
2018-12-13T03:47:22.799Z,15.37
2018-12-13T03:49:57.299Z,16.37
2018-12-13T03:52:31.622Z,15.20
2018-12-13T03:55:05.865Z,15.63
2018-12-13T03:57:40.647Z,15.93
2018-12-13T04:00:14.576Z,15.53
2018-12-13T04:02:48.623Z,15.40
2018-12-13T04:05:22.703Z,15.17
2018-12-13T04:07:57.582Z,15.77
2018-12-13T04:10:32.355Z,15.20
2018-12-13T04:13:06.185Z,15.80
2018-12-13T04:15:44.162Z,16.70
2018-12-13T04:18:18.720Z,15.80
2018-12-13T04:20:52.763Z,15.80
2018-12-13T04:23:26.739Z,15.67
2018-12-13T04:26:01.823Z,15.60
2018-12-13T04:28:36.053Z,15.33
2018-12-13T04:31:10.008Z,15.90
2018-12-13T04:33:43.899Z,18.17
2018-12-13T04:36:18.606Z,16.77
2018-12-13T04:38:53.120Z,16.67
2018-12-13T04:41:26.982Z,16.00
2018-12-13T04:44:01.071Z,15.07
2018-12-13T04:46:35.270Z,15.27
2018-12-13T04:49:10.000Z,21.33
2018-12-13T04:51:43.848Z,18.10
2018-12-13T04:54:17.825Z,16.07
2018-12-13T04:56:51.734Z,14.93
2018-12-13T04:59:25.943Z,16.17
2018-12-13T05:02:03.927Z,16.00
2018-12-13T05:04:37.902Z,16.27
2018-12-13T05:07:16.294Z,16.57
2018-12-13T05:09:51.047Z,17.20
2018-12-13T05:12:26.012Z,15.10
2018-12-13T05:15:00.030Z,15.47
2018-12-13T05:17:34.949Z,16.03
2018-12-13T05:20:13.278Z,16.47
2018-12-13T05:22:47.956Z,16.93
2018-12-13T05:25:21.882Z,16.37
2018-12-13T05:27:56.071Z,16.40
2018-12-13T05:30:30.218Z,17.70
2018-12-13T05:33:04.349Z,17.77
2018-12-13T05:35:42.413Z,18.07
2018-12-13T05:38:20.752Z,16.23
2018-12-13T05:40:55.806Z,15.73
2018-12-13T05:43:33.799Z,16.17
2018-12-13T05:46:07.903Z,16.83
2018-12-13T05:48:42.346Z,17.70
2018-12-13T05:51:17.021Z,18.70
2018-12-13T05:53:55.100Z,16.47
2018-12-13T05:56:29.341Z,17.00
2018-12-13T05:59:03.562Z,16.07
2018-12-13T06:01:38.538Z,17.00
2018-12-13T06:04:13.468Z,18.40
2018-12-13T06:06:48.004Z,17.30
2018-12-13T06:09:22.747Z,20.80
2018-12-13T06:11:57.048Z,18.73
2018-12-13T06:14:31.428Z,18.53
2018-12-13T06:17:05.639Z,18.43
2018-12-13T06:19:43.861Z,16.73
2018-12-13T06:22:18.487Z,17.47
2018-12-13T06:24:52.551Z,17.43
2018-12-13T06:27:26.778Z,17.63
2018-12-13T06:30:07.230Z,18.40
2018-12-13T06:32:36.984Z,19.53
2018-12-13T06:35:10.980Z,18.30
2018-12-13T06:37:44.944Z,18.43
2018-12-13T06:40:18.963Z,19.77
2018-12-13T06:42:52.976Z,17.80
2018-12-13T06:45:27.278Z,17.60
2018-12-13T06:48:01.241Z,17.93
2018-12-13T06:50:35.226Z,31.73
2018-12-13T06:53:10.219Z,39.13
2018-12-13T06:55:45.083Z,20.77
2018-12-13T06:58:19.293Z,18.50
2018-12-13T07:00:53.314Z,18.00
2018-12-13T07:03:28.078Z,17.90
2018-12-13T07:06:02.779Z,18.97
2018-12-13T07:08:37.422Z,20.23
2018-12-13T07:11:12.222Z,19.53
2018-12-13T07:13:46.235Z,19.53
2018-12-13T07:16:20.459Z,20.50
2018-12-13T07:18:54.557Z,18.97
2018-12-13T07:21:28.843Z,20.27
2018-12-13T07:24:06.996Z,21.27
2018-12-13T07:26:41.895Z,19.60
2018-12-13T07:29:24.185Z,18.80
2018-12-13T07:31:59.043Z,19.00
2018-12-13T07:34:33.293Z,19.30
2018-12-13T07:37:07.836Z,20.80
2018-12-13T07:39:42.013Z,19.60
2018-12-13T07:42:16.211Z,20.10
2018-12-13T07:44:50.348Z,20.43
2018-12-13T07:47:24.427Z,21.47
2018-12-13T07:49:58.421Z,19.77
2018-12-13T07:52:32.564Z,20.80
2018-12-13T07:55:06.948Z,21.10
2018-12-13T07:57:41.261Z,19.40
2018-12-13T08:00:15.628Z,20.23
2018-12-13T08:02:49.739Z,21.43
2018-12-13T08:05:23.840Z,20.00
2018-12-13T08:07:58.456Z,20.83
2018-12-13T08:10:33.097Z,20.00
2018-12-13T08:13:07.487Z,22.13
2018-12-13T08:15:46.348Z,22.03
2018-12-13T08:18:20.435Z,21.27
2018-12-13T08:20:55.257Z,20.47
2018-12-13T08:26:02.759Z,20.57
2018-12-13T08:28:37.793Z,22.20
2018-12-13T08:31:12.008Z,21.23
2018-12-13T08:33:46.142Z,22.10
2018-12-13T08:36:21.020Z,22.77
2018-12-13T08:38:59.165Z,22.23
2018-12-13T08:41:38.092Z,22.83
2018-12-13T08:44:12.739Z,22.40
2018-12-13T08:46:47.683Z,22.70
2018-12-13T08:49:22.465Z,22.30
2018-12-13T08:51:56.806Z,21.80
2018-12-13T08:54:31.119Z,21.53
2018-12-13T08:57:05.315Z,22.67
2018-12-13T08:59:39.480Z,21.63
2018-12-13T09:02:14.117Z,22.13
2018-12-13T09:04:48.975Z,21.53
2018-12-13T09:07:22.926Z,19.87
2018-12-13T09:09:56.960Z,18.43
2018-12-13T09:12:31.383Z,20.17
2018-12-13T09:15:05.949Z,21.67
2018-12-13T09:17:40.687Z,20.57
2018-12-13T09:20:15.047Z,21.30
2018-12-13T09:22:49.644Z,21.53
2018-12-13T09:25:24.028Z,20.33
2018-12-13T09:27:58.910Z,18.97
2018-12-13T09:30:33.138Z,18.33
2018-12-13T09:33:08.146Z,20.10
2018-12-13T09:35:42.082Z,20.50
2018-12-13T09:38:16.341Z,20.83
2018-12-13T09:40:51.099Z,19.57
2018-12-13T09:43:26.018Z,19.30
2018-12-13T09:46:00.578Z,19.47
2018-12-13T09:48:34.593Z,19.77
2018-12-13T09:51:09.211Z,19.37
2018-12-13T09:53:43.262Z,17.33
2018-12-13T09:56:17.561Z,16.13
2018-12-13T09:58:51.546Z,17.53
2018-12-13T10:01:29.610Z,17.23
2018-12-13T10:04:03.953Z,14.87
2018-12-13T10:06:38.112Z,15.57
2018-12-13T10:09:12.149Z,16.67
2018-12-13T10:11:46.000Z,14.27
2018-12-13T10:14:24.225Z,14.07
2018-12-13T10:16:59.312Z,14.90
2018-12-13T10:19:34.246Z,13.70
2018-12-13T10:22:11.839Z,12.20
2018-12-13T10:24:45.531Z,11.13
2018-12-13T10:27:20.366Z,10.97
2018-12-13T10:29:58.644Z,11.33
2018-12-13T10:32:33.447Z,12.50
2018-12-13T10:35:11.314Z,11.20
2018-12-13T10:37:44.029Z,11.83
2018-12-13T10:40:18.480Z,13.73
2018-12-13T10:42:53.109Z,14.30
2018-12-13T10:45:27.217Z,13.90
2018-12-13T10:48:01.617Z,12.70
2018-12-13T10:50:35.931Z,11.87
2018-12-13T10:53:09.895Z,10.77
2018-12-13T10:55:44.150Z,11.30
2018-12-13T10:58:18.632Z,12.97
2018-12-13T11:00:57.618Z,11.50
2018-12-13T11:03:36.523Z,13.23
2018-12-13T11:06:10.829Z,12.90
2018-12-13T11:08:44.707Z,11.63
2018-12-13T11:11:22.650Z,11.37
2018-12-13T11:13:57.491Z,12.43
2018-12-13T11:16:32.115Z,11.90
2018-12-13T11:19:06.415Z,12.30
2018-12-13T11:21:40.306Z,9.80
2018-12-13T11:24:14.551Z,10.13
2018-12-13T11:26:50.033Z,9.87
2018-12-13T11:29:40.778Z,10.30
2018-12-13T11:32:16.135Z,10.03
2018-12-13T11:34:55.753Z,9.73
2018-12-13T11:37:30.255Z,9.33
2018-12-13T11:40:05.123Z,9.37
2018-12-13T11:42:40.005Z,9.80
2018-12-13T11:45:13.952Z,9.30
2018-12-13T11:47:48.057Z,9.87
2018-12-13T11:50:22.168Z,10.57
2018-12-13T11:53:00.934Z,12.27
2018-12-13T11:55:41.506Z,10.63
2018-12-13T11:58:17.844Z,9.30
2018-12-13T12:40:02.882Z,13.33
2018-12-13T12:42:37.431Z,17.73
2018-12-13T12:45:15.879Z,20.40
2018-12-13T12:47:50.066Z,24.17
2018-12-13T12:50:24.410Z,19.90
2018-12-13T12:52:58.278Z,17.33
2018-12-13T12:55:32.260Z,17.87
2018-12-13T12:58:06.422Z,18.03
2018-12-13T13:00:40.723Z,18.40
2018-12-13T13:03:14.618Z,18.10
2018-12-13T13:05:48.662Z,20.80
2018-12-13T13:08:22.690Z,20.93
2018-12-13T13:10:56.895Z,21.27
2018-12-13T13:13:30.766Z,19.33
2018-12-13T13:16:04.921Z,20.67
2018-12-13T13:18:39.230Z,20.43
2018-12-13T13:21:13.584Z,20.30
2018-12-13T13:23:47.667Z,18.50
2018-12-13T13:26:21.915Z,19.97
2018-12-13T13:28:56.824Z,19.27
2018-12-13T13:31:31.056Z,25.13
2018-12-13T13:34:05.604Z,21.93
2018-12-13T13:36:39.671Z,22.30
2018-12-13T13:39:14.005Z,20.53
2018-12-13T13:41:48.810Z,20.53
2018-12-13T13:44:25.146Z,22.50
2018-12-13T13:46:59.402Z,23.67
2018-12-13T13:49:37.801Z,20.63
2018-12-13T13:52:16.048Z,21.87
2018-12-13T13:54:50.774Z,24.10
2018-12-13T13:57:25.275Z,24.10
2018-12-13T14:00:00.005Z,20.03
2018-12-13T14:02:38.722Z,18.23
2018-12-13T14:05:14.053Z,20.00
2018-12-13T14:07:48.734Z,18.90
2018-12-13T14:10:22.860Z,27.60
2018-12-13T14:12:56.973Z,21.67
2018-12-13T14:15:31.064Z,20.37
2018-12-13T14:18:10.364Z,21.73
2018-12-13T14:20:44.478Z,20.77
2018-12-13T14:23:18.991Z,22.20
2018-12-13T14:25:57.824Z,19.93
2018-12-13T14:28:36.049Z,20.73
2018-12-13T14:31:14.406Z,21.63
2018-12-13T14:33:52.298Z,25.17
2018-12-13T14:36:26.717Z,27.63
2018-12-13T14:39:02.236Z,22.40
2018-12-13T14:41:36.513Z,21.03
2018-12-13T14:44:10.761Z,18.57
2018-12-13T14:46:44.647Z,19.30
2018-12-13T14:49:19.611Z,17.63
2018-12-13T14:51:54.186Z,18.87
2018-12-13T14:54:28.387Z,16.40
2018-12-13T14:57:02.491Z,19.20
2018-12-13T14:59:46.958Z,18.67
2018-12-13T15:02:18.614Z,19.43
2018-12-13T15:04:53.441Z,21.57
2018-12-13T15:07:29.125Z,26.40
2018-12-13T15:10:03.923Z,22.70
2018-12-13T15:12:38.680Z,20.93
2018-12-13T15:15:13.199Z,22.47
2018-12-13T15:17:52.019Z,20.33
2018-12-13T15:20:31.780Z,20.67
2018-12-13T15:23:06.010Z,20.43
2018-12-13T15:25:40.253Z,21.13
2018-12-13T15:28:18.299Z,20.50
2018-12-13T15:30:52.486Z,20.13
2018-12-13T15:33:26.834Z,23.00
2018-12-13T15:36:00.734Z,27.10
2018-12-13T15:38:35.167Z,23.20
2018-12-13T15:41:13.356Z,22.27
2018-12-13T15:43:47.528Z,20.53
2018-12-13T15:46:21.642Z,22.47
2018-12-13T15:48:55.832Z,20.77
2018-12-13T15:51:30.807Z,19.60
2018-12-13T15:54:04.695Z,20.97
2018-12-13T15:56:39.523Z,21.20
2018-12-13T15:59:14.507Z,20.33
2018-12-13T16:01:48.448Z,22.67
2018-12-13T16:04:23.409Z,22.10
2018-12-13T16:06:57.542Z,22.07
2018-12-13T16:09:31.422Z,23.83
2018-12-13T16:12:05.930Z,22.13
2018-12-13T16:14:44.709Z,20.70
2018-12-13T16:17:18.798Z,22.67
2018-12-13T16:19:52.764Z,23.83
2018-12-13T16:22:26.919Z,23.13
2018-12-13T16:25:05.266Z,20.83
2018-12-13T16:27:39.202Z,21.70
2018-12-13T16:30:13.597Z,23.73
2018-12-13T16:32:47.480Z,24.47
2018-12-13T16:35:21.745Z,22.47
2018-12-13T16:37:55.715Z,22.77
2018-12-13T16:40:29.937Z,23.00
2018-12-13T16:43:03.909Z,23.73
2018-12-13T16:45:38.859Z,22.07
2018-12-13T16:48:13.740Z,22.77
2018-12-13T16:50:52.281Z,22.90
2018-12-13T16:53:30.962Z,22.33
2018-12-13T16:56:05.837Z,24.27
2018-12-13T16:58:39.858Z,22.20
2018-12-13T17:01:19.933Z,21.57
2018-12-13T17:03:55.182Z,23.40
2018-12-13T17:06:29.660Z,23.33
2018-12-13T17:09:05.642Z,24.60
2018-12-13T17:11:39.946Z,24.10
2018-12-13T17:14:14.770Z,23.47
2018-12-13T17:16:49.127Z,22.80
2018-12-13T17:19:24.231Z,22.43
2018-12-13T17:21:59.237Z,23.63
2018-12-13T17:24:34.612Z,24.43
2018-12-13T17:27:09.560Z,22.40
2018-12-13T17:29:43.670Z,22.87
2018-12-13T17:32:17.833Z,23.97
2018-12-13T17:34:53.092Z,21.17
2018-12-13T17:37:27.817Z,23.03
2018-12-13T17:40:02.786Z,24.63
2018-12-13T17:42:37.927Z,26.20
2018-12-13T17:45:12.114Z,26.57
2018-12-13T17:47:46.261Z,23.50
2018-12-13T17:50:21.730Z,25.17
2018-12-13T17:52:56.415Z,24.80
2018-12-13T17:55:31.028Z,23.40
2018-12-13T17:58:05.848Z,22.83
2018-12-13T18:00:40.063Z,24.10
2018-12-13T18:03:14.888Z,25.30
2018-12-13T18:05:49.120Z,25.57
2018-12-13T18:08:24.066Z,25.83
2018-12-13T18:10:58.473Z,25.63
2018-12-13T18:13:33.335Z,23.70
2018-12-13T18:16:07.434Z,24.63
2018-12-13T18:18:41.648Z,22.43
2018-12-13T18:21:15.968Z,24.20
2018-12-13T18:23:50.116Z,24.97
2018-12-13T18:26:28.305Z,24.43
2018-12-13T18:29:02.680Z,24.77
2018-12-13T18:31:36.802Z,26.80
2018-12-13T18:34:11.619Z,25.23
2018-12-13T18:36:46.083Z,24.60
2018-12-13T18:39:24.088Z,25.57
2018-12-13T18:41:58.463Z,25.53
2018-12-13T18:44:32.890Z,25.90
2018-12-13T18:47:07.918Z,28.03
2018-12-13T18:49:42.282Z,26.10
2018-12-13T18:52:17.421Z,26.40
2018-12-13T18:54:51.388Z,27.77
2018-12-13T18:57:25.562Z,24.13
2018-12-13T18:59:59.512Z,29.17
2018-12-13T19:02:34.096Z,28.83
2018-12-13T19:05:08.806Z,31.63
2018-12-13T19:07:43.794Z,22.67
2018-12-13T19:10:17.984Z,21.73
2018-12-13T19:12:52.839Z,22.67
2018-12-13T19:15:27.727Z,21.83
2018-12-13T19:18:01.799Z,22.97
2018-12-13T19:20:36.102Z,21.87
2018-12-13T19:23:11.136Z,24.57
2018-12-13T19:25:45.855Z,22.27
2018-12-13T19:28:21.231Z,25.47
2018-12-13T19:30:55.426Z,24.00
2018-12-13T19:33:29.567Z,25.67
2018-12-13T19:36:03.627Z,24.77
2018-12-13T19:38:37.590Z,25.13
2018-12-13T19:41:12.683Z,23.37
2018-12-13T19:43:49.404Z,22.33
2018-12-13T19:46:23.916Z,21.20
2018-12-13T19:48:58.253Z,22.77
2018-12-13T19:51:32.866Z,21.70
2018-12-13T19:54:06.875Z,23.37
2018-12-13T19:56:41.077Z,23.87
2018-12-13T19:59:16.681Z,24.13
2018-12-13T20:01:50.723Z,27.50
2018-12-13T20:04:25.758Z,24.30
2018-12-13T20:06:59.958Z,23.03
2018-12-13T20:09:33.948Z,23.20
2018-12-13T20:12:08.100Z,27.87
2018-12-13T20:14:42.106Z,24.90
2018-12-13T20:17:16.387Z,23.73
2018-12-13T20:19:55.178Z,27.43
2018-12-13T20:22:29.420Z,29.43
2018-12-13T20:25:03.735Z,24.77
2018-12-13T20:27:38.410Z,26.50
2018-12-13T20:30:18.279Z,27.97
2018-12-13T20:32:56.509Z,28.43
2018-12-13T20:35:30.577Z,24.97
2018-12-13T20:38:05.430Z,24.67
2018-12-13T20:40:40.337Z,25.70
2018-12-13T20:43:19.368Z,26.27
2018-12-13T20:45:54.066Z,24.97
2018-12-13T20:48:29.205Z,23.97
2018-12-13T20:51:08.824Z,24.10
2018-12-13T20:53:43.657Z,24.63
2018-12-13T21:03:56.049Z,27.67
2018-12-13T21:06:30.232Z,27.30
2018-12-13T21:09:08.195Z,25.07
2018-12-13T21:11:49.383Z,25.60
2018-12-13T21:14:23.507Z,29.27
2018-12-13T21:17:00.075Z,27.63
2018-12-13T21:19:34.391Z,24.23
2018-12-13T21:22:08.563Z,25.13
2018-12-13T21:24:42.679Z,24.80
2018-12-13T21:27:17.017Z,22.63
2018-12-13T21:29:51.028Z,27.27
2018-12-13T21:32:25.288Z,28.20
2018-12-13T21:35:00.126Z,23.97
2018-12-13T21:37:38.742Z,31.47
2018-12-13T21:40:16.784Z,24.30
2018-12-13T21:42:50.899Z,23.73
2018-12-13T21:45:25.822Z,24.97
2018-12-13T21:48:04.855Z,25.97
2018-12-13T21:50:39.664Z,25.80
2018-12-13T21:53:13.545Z,25.80
2018-12-13T21:55:48.073Z,25.73
2018-12-13T21:58:29.292Z,23.93
2018-12-13T22:01:03.323Z,24.63
2018-12-13T22:03:37.377Z,25.63
2018-12-13T22:08:43.795Z,25.10
2018-12-13T22:11:20.010Z,25.43
2018-12-13T22:13:58.107Z,25.03
2018-12-13T22:16:36.070Z,25.30
2018-12-13T22:19:14.009Z,24.10
2018-12-13T22:21:48.486Z,24.33
2018-12-13T22:24:30.491Z,24.80
2018-12-13T22:27:04.431Z,23.83
2018-12-13T22:29:38.953Z,24.60
2018-12-13T22:32:13.145Z,25.10
2018-12-13T22:34:48.287Z,25.40
2018-12-13T22:37:23.135Z,26.63
2018-12-13T22:39:57.217Z,25.90
2018-12-13T22:42:31.581Z,30.47
2018-12-13T22:45:07.622Z,35.13
2018-12-13T22:47:42.840Z,27.87
2018-12-13T22:50:18.233Z,21.53
2018-12-13T22:52:53.530Z,23.00
2018-12-13T22:55:31.770Z,25.83
2018-12-13T22:58:11.212Z,27.67
2018-12-13T23:00:45.995Z,27.17
2018-12-13T23:03:19.840Z,24.63
2018-12-13T23:05:53.727Z,23.17
2018-12-13T23:08:28.026Z,24.50
2018-12-13T23:28:55.437Z,24.30
2018-12-13T23:31:29.932Z,23.80
2018-12-13T23:34:04.482Z,25.00
2018-12-13T23:36:38.903Z,24.60
2018-12-13T23:39:12.875Z,24.73
2018-12-13T23:41:47.342Z,25.37
2018-12-13T23:44:22.333Z,26.13
2018-12-13T23:47:00.123Z,24.97
2018-12-13T23:49:35.560Z,25.97
2018-12-13T23:52:10.742Z,28.13
2018-12-13T23:54:52.618Z,28.20
2018-12-13T23:57:26.711Z,25.93
